sensor_id;sensor_type;location;lat;lon;timestamp;P1;durP1;ratioP1;P2;durP2;ratioP2
6862;SDS011;3470;48.738;9.616;2022-08-03T00:01:56;3.30;;;2.92;;
6862;SDS011;3470;48.738;9.616;2022-08-03T00:04:22;3.65;;;3.35;;
6862;SDS011;3470;48.738;9.616;2022-08-03T00:06:48;5.25;;;3.28;;
6862;SDS011;3470;48.738;9.616;2022-08-03T00:09:13;3.25;;;2.95;;
6862;SDS011;3470;48.738;9.616;2022-08-03T00:11:39;3.38;;;3.08;;
6862;SDS011;3470;48.738;9.616;2022-08-03T00:14:05;3.40;;;3.10;;
6862;SDS011;3470;48.738;9.616;2022-08-03T00:16:31;4.00;;;3.53;;
6862;SDS011;3470;48.738;9.616;2022-08-03T00:18:57;5.00;;;3.70;;
6862;SDS011;3470;48.738;9.616;2022-08-03T00:21:23;3.50;;;3.20;;
6862;SDS011;3470;48.738;9.616;2022-08-03T00:23:48;3.58;;;3.28;;
6862;SDS011;3470;48.738;9.616;2022-08-03T00:26:14;3.85;;;3.30;;
6862;SDS011;3470;48.738;9.616;2022-08-03T00:28:40;5.43;;;3.75;;
6862;SDS011;3470;48.738;9.616;2022-08-03T00:31:06;4.03;;;3.30;;
6862;SDS011;3470;48.738;9.616;2022-08-03T00:33:31;3.40;;;3.00;;
6862;SDS011;3470;48.738;9.616;2022-08-03T00:35:57;4.57;;;3.50;;
6862;SDS011;3470;48.738;9.616;2022-08-03T00:38:23;3.88;;;3.00;;
6862;SDS011;3470;48.738;9.616;2022-08-03T00:40:48;4.28;;;3.40;;
6862;SDS011;3470;48.738;9.616;2022-08-03T00:43:14;3.53;;;3.22;;
6862;SDS011;3470;48.738;9.616;2022-08-03T00:45:40;4.20;;;3.35;;
6862;SDS011;3470;48.738;9.616;2022-08-03T00:48:07;3.58;;;3.28;;
6862;SDS011;3470;48.738;9.616;2022-08-03T00:50:35;4.25;;;3.22;;
6862;SDS011;3470;48.738;9.616;2022-08-03T00:53:05;4.25;;;3.33;;
6862;SDS011;3470;48.738;9.616;2022-08-03T00:55:31;5.38;;;3.55;;
6862;SDS011;3470;48.738;9.616;2022-08-03T00:57:57;3.85;;;3.42;;
6862;SDS011;3470;48.738;9.616;2022-08-03T01:00:26;3.22;;;3.03;;
6862;SDS011;3470;48.738;9.616;2022-08-03T01:02:52;3.95;;;3.35;;
6862;SDS011;3470;48.738;9.616;2022-08-03T01:05:19;3.75;;;3.45;;
6862;SDS011;3470;48.738;9.616;2022-08-03T01:08:02;3.28;;;2.95;;
6862;SDS011;3470;48.738;9.616;2022-08-03T01:13:33;3.65;;;3.10;;
6862;SDS011;3470;48.738;9.616;2022-08-03T01:27:18;3.78;;;3.22;;
6862;SDS011;3470;48.738;9.616;2022-08-03T01:30:02;4.15;;;3.75;;
6862;SDS011;3470;48.738;9.616;2022-08-03T01:38:14;7.28;;;3.75;;
6862;SDS011;3470;48.738;9.616;2022-08-03T01:40:46;3.90;;;3.60;;
6862;SDS011;3470;48.738;9.616;2022-08-03T01:43:17;4.85;;;4.45;;
6862;SDS011;3470;48.738;9.616;2022-08-03T01:45:45;5.03;;;3.75;;
6862;SDS011;3470;48.738;9.616;2022-08-03T01:48:12;4.20;;;3.80;;
6862;SDS011;3470;48.738;9.616;2022-08-03T01:50:41;4.07;;;3.67;;
6862;SDS011;3470;48.738;9.616;2022-08-03T01:53:09;4.40;;;3.83;;
6862;SDS011;3470;48.738;9.616;2022-08-03T01:55:37;4.20;;;3.47;;
6862;SDS011;3470;48.738;9.616;2022-08-03T01:58:04;4.03;;;3.70;;
6862;SDS011;3470;48.738;9.616;2022-08-03T02:00:34;4.15;;;3.75;;
6862;SDS011;3470;48.738;9.616;2022-08-03T02:03:01;5.35;;;4.03;;
6862;SDS011;3470;48.738;9.616;2022-08-03T02:05:30;4.53;;;4.13;;
6862;SDS011;3470;48.738;9.616;2022-08-03T02:07:57;4.63;;;4.20;;
6862;SDS011;3470;48.738;9.616;2022-08-03T02:10:24;6.70;;;4.20;;
6862;SDS011;3470;48.738;9.616;2022-08-03T02:12:52;4.05;;;3.65;;
6862;SDS011;3470;48.738;9.616;2022-08-03T02:15:19;4.18;;;3.78;;
6862;SDS011;3470;48.738;9.616;2022-08-03T02:17:47;3.92;;;3.47;;
6862;SDS011;3470;48.738;9.616;2022-08-03T02:20:13;4.10;;;3.80;;
6862;SDS011;3470;48.738;9.616;2022-08-03T02:22:40;4.30;;;3.90;;
6862;SDS011;3470;48.738;9.616;2022-08-03T02:25:11;4.20;;;3.80;;
6862;SDS011;3470;48.738;9.616;2022-08-03T02:27:51;4.50;;;3.90;;
6862;SDS011;3470;48.738;9.616;2022-08-03T02:30:20;4.43;;;4.03;;
6862;SDS011;3470;48.738;9.616;2022-08-03T02:32:50;4.07;;;3.78;;
6862;SDS011;3470;48.738;9.616;2022-08-03T02:35:22;4.15;;;3.83;;
6862;SDS011;3470;48.738;9.616;2022-08-03T02:37:51;4.88;;;4.32;;
6862;SDS011;3470;48.738;9.616;2022-08-03T02:40:22;4.68;;;4.28;;
6862;SDS011;3470;48.738;9.616;2022-08-03T02:42:50;4.10;;;3.80;;
6862;SDS011;3470;48.738;9.616;2022-08-03T02:45:19;4.57;;;3.72;;
6862;SDS011;3470;48.738;9.616;2022-08-03T02:47:46;4.43;;;3.95;;
6862;SDS011;3470;48.738;9.616;2022-08-03T02:50:13;3.67;;;3.38;;
6862;SDS011;3470;48.738;9.616;2022-08-03T02:52:41;4.60;;;4.20;;
6862;SDS011;3470;48.738;9.616;2022-08-03T02:55:09;4.00;;;3.70;;
6862;SDS011;3470;48.738;9.616;2022-08-03T02:57:36;5.50;;;4.10;;
6862;SDS011;3470;48.738;9.616;2022-08-03T03:00:03;6.55;;;4.60;;
6862;SDS011;3470;48.738;9.616;2022-08-03T03:02:31;6.72;;;4.30;;
6862;SDS011;3470;48.738;9.616;2022-08-03T03:04:57;5.30;;;4.10;;
6862;SDS011;3470;48.738;9.616;2022-08-03T03:07:25;4.20;;;3.80;;
6862;SDS011;3470;48.738;9.616;2022-08-03T03:09:51;5.00;;;4.60;;
6862;SDS011;3470;48.738;9.616;2022-08-03T03:12:18;4.75;;;4.30;;
6862;SDS011;3470;48.738;9.616;2022-08-03T03:14:45;5.93;;;4.35;;
6862;SDS011;3470;48.738;9.616;2022-08-03T03:17:10;4.70;;;4.30;;
6862;SDS011;3470;48.738;9.616;2022-08-03T03:19:38;4.38;;;3.97;;
6862;SDS011;3470;48.738;9.616;2022-08-03T03:22:06;4.70;;;4.30;;
6862;SDS011;3470;48.738;9.616;2022-08-03T03:24:32;4.28;;;3.88;;
6862;SDS011;3470;48.738;9.616;2022-08-03T03:26:59;4.22;;;3.80;;
6862;SDS011;3470;48.738;9.616;2022-08-03T03:29:26;4.07;;;3.78;;
6862;SDS011;3470;48.738;9.616;2022-08-03T03:31:52;4.03;;;3.70;;
6862;SDS011;3470;48.738;9.616;2022-08-03T03:34:18;4.20;;;3.83;;
6862;SDS011;3470;48.738;9.616;2022-08-03T03:36:44;3.80;;;3.50;;
6862;SDS011;3470;48.738;9.616;2022-08-03T03:39:09;5.68;;;3.92;;
6862;SDS011;3470;48.738;9.616;2022-08-03T03:41:36;4.22;;;3.67;;
6862;SDS011;3470;48.738;9.616;2022-08-03T03:44:03;5.45;;;3.88;;
6862;SDS011;3470;48.738;9.616;2022-08-03T03:46:28;5.47;;;4.07;;
6862;SDS011;3470;48.738;9.616;2022-08-03T03:48:55;4.20;;;3.80;;
6862;SDS011;3470;48.738;9.616;2022-08-03T03:51:21;4.70;;;3.67;;
6862;SDS011;3470;48.738;9.616;2022-08-03T03:53:56;4.60;;;3.70;;
6862;SDS011;3470;48.738;9.616;2022-08-03T03:56:23;3.88;;;3.58;;
6862;SDS011;3470;48.738;9.616;2022-08-03T03:58:49;4.20;;;3.75;;
6862;SDS011;3470;48.738;9.616;2022-08-03T04:01:15;4.20;;;3.80;;
6862;SDS011;3470;48.738;9.616;2022-08-03T04:03:41;4.00;;;3.22;;
6862;SDS011;3470;48.738;9.616;2022-08-03T04:06:07;3.95;;;3.65;;
6862;SDS011;3470;48.738;9.616;2022-08-03T04:08:51;4.10;;;3.75;;
6862;SDS011;3470;48.738;9.616;2022-08-03T04:11:52;4.25;;;3.60;;
6862;SDS011;3470;48.738;9.616;2022-08-03T04:14:26;5.07;;;3.90;;
6862;SDS011;3470;48.738;9.616;2022-08-03T04:17:04;4.32;;;3.92;;
6862;SDS011;3470;48.738;9.616;2022-08-03T04:19:33;6.10;;;4.15;;
6862;SDS011;3470;48.738;9.616;2022-08-03T04:22:04;5.13;;;3.90;;
6862;SDS011;3470;48.738;9.616;2022-08-03T04:24:38;3.90;;;3.60;;
6862;SDS011;3470;48.738;9.616;2022-08-03T04:27:10;4.43;;;3.53;;
6862;SDS011;3470;48.738;9.616;2022-08-03T04:29:40;3.90;;;3.55;;
6862;SDS011;3470;48.738;9.616;2022-08-03T04:32:09;4.75;;;3.58;;
6862;SDS011;3470;48.738;9.616;2022-08-03T04:34:35;4.50;;;3.70;;
6862;SDS011;3470;48.738;9.616;2022-08-03T04:37:02;4.63;;;3.45;;
6862;SDS011;3470;48.738;9.616;2022-08-03T04:39:34;3.85;;;3.55;;
6862;SDS011;3470;48.738;9.616;2022-08-03T04:42:03;4.50;;;3.65;;
6862;SDS011;3470;48.738;9.616;2022-08-03T04:44:34;12.18;;;7.45;;
6862;SDS011;3470;48.738;9.616;2022-08-03T04:47:01;8.05;;;5.97;;
6862;SDS011;3470;48.738;9.616;2022-08-03T04:49:28;8.27;;;6.07;;
6862;SDS011;3470;48.738;9.616;2022-08-03T04:51:54;6.22;;;5.43;;
6862;SDS011;3470;48.738;9.616;2022-08-03T04:54:20;4.82;;;4.30;;
6862;SDS011;3470;48.738;9.616;2022-08-03T04:56:46;5.13;;;3.83;;
6862;SDS011;3470;48.738;9.616;2022-08-03T04:59:11;5.22;;;4.57;;
6862;SDS011;3470;48.738;9.616;2022-08-03T05:01:38;4.60;;;4.18;;
6862;SDS011;3470;48.738;9.616;2022-08-03T05:04:04;5.13;;;4.63;;
6862;SDS011;3470;48.738;9.616;2022-08-03T05:06:30;6.10;;;4.57;;
6862;SDS011;3470;48.738;9.616;2022-08-03T05:08:55;5.47;;;4.05;;
6862;SDS011;3470;48.738;9.616;2022-08-03T05:11:21;3.83;;;3.40;;
6862;SDS011;3470;48.738;9.616;2022-08-03T05:13:47;4.90;;;3.85;;
6862;SDS011;3470;48.738;9.616;2022-08-03T05:16:13;6.10;;;3.65;;
6862;SDS011;3470;48.738;9.616;2022-08-03T05:18:42;4.72;;;3.75;;
6862;SDS011;3470;48.738;9.616;2022-08-03T05:21:08;4.10;;;3.40;;
6862;SDS011;3470;48.738;9.616;2022-08-03T05:23:34;4.85;;;3.58;;
6862;SDS011;3470;48.738;9.616;2022-08-03T05:26:01;5.50;;;3.70;;
6862;SDS011;3470;48.738;9.616;2022-08-03T05:28:27;3.63;;;3.33;;
6862;SDS011;3470;48.738;9.616;2022-08-03T05:30:53;3.47;;;3.17;;
6862;SDS011;3470;48.738;9.616;2022-08-03T05:33:18;3.53;;;3.10;;
6862;SDS011;3470;48.738;9.616;2022-08-03T05:35:44;3.90;;;3.55;;
6862;SDS011;3470;48.738;9.616;2022-08-03T05:38:09;3.22;;;2.95;;
6862;SDS011;3470;48.738;9.616;2022-08-03T05:40:35;3.50;;;3.20;;
6862;SDS011;3470;48.738;9.616;2022-08-03T05:43:01;3.72;;;3.35;;
6862;SDS011;3470;48.738;9.616;2022-08-03T05:45:27;3.53;;;3.00;;
6862;SDS011;3470;48.738;9.616;2022-08-03T05:47:52;3.47;;;3.17;;
6862;SDS011;3470;48.738;9.616;2022-08-03T05:50:18;3.60;;;3.20;;
6862;SDS011;3470;48.738;9.616;2022-08-03T05:52:44;4.38;;;3.20;;
6862;SDS011;3470;48.738;9.616;2022-08-03T05:55:10;4.25;;;3.17;;
6862;SDS011;3470;48.738;9.616;2022-08-03T05:57:37;3.45;;;3.10;;
6862;SDS011;3470;48.738;9.616;2022-08-03T06:00:04;3.65;;;3.22;;
6862;SDS011;3470;48.738;9.616;2022-08-03T06:02:31;3.67;;;3.30;;
6862;SDS011;3470;48.738;9.616;2022-08-03T06:04:57;3.53;;;3.22;;
6862;SDS011;3470;48.738;9.616;2022-08-03T06:07:23;3.60;;;3.30;;
6862;SDS011;3470;48.738;9.616;2022-08-03T06:09:48;3.67;;;3.22;;
6862;SDS011;3470;48.738;9.616;2022-08-03T06:12:14;3.15;;;2.85;;
6862;SDS011;3470;48.738;9.616;2022-08-03T06:14:40;4.07;;;3.78;;
6862;SDS011;3470;48.738;9.616;2022-08-03T06:17:05;3.50;;;3.20;;
6862;SDS011;3470;48.738;9.616;2022-08-03T06:19:31;3.35;;;3.05;;
6862;SDS011;3470;48.738;9.616;2022-08-03T06:21:56;3.67;;;3.38;;
6862;SDS011;3470;48.738;9.616;2022-08-03T06:24:22;3.40;;;3.10;;
6862;SDS011;3470;48.738;9.616;2022-08-03T06:26:48;4.15;;;3.63;;
6862;SDS011;3470;48.738;9.616;2022-08-03T06:29:13;4.35;;;3.50;;
6862;SDS011;3470;48.738;9.616;2022-08-03T06:31:39;3.60;;;3.30;;
6862;SDS011;3470;48.738;9.616;2022-08-03T06:34:04;4.80;;;3.58;;
6862;SDS011;3470;48.738;9.616;2022-08-03T06:36:30;4.95;;;3.47;;
6862;SDS011;3470;48.738;9.616;2022-08-03T06:38:59;3.40;;;3.10;;
6862;SDS011;3470;48.738;9.616;2022-08-03T06:41:25;4.00;;;3.08;;
6862;SDS011;3470;48.738;9.616;2022-08-03T06:43:52;4.82;;;3.13;;
6862;SDS011;3470;48.738;9.616;2022-08-03T06:46:18;3.33;;;3.03;;
6862;SDS011;3470;48.738;9.616;2022-08-03T06:48:44;4.53;;;3.20;;
6862;SDS011;3470;48.738;9.616;2022-08-03T06:51:10;4.85;;;3.22;;
6862;SDS011;3470;48.738;9.616;2022-08-03T06:53:36;3.67;;;3.10;;
6862;SDS011;3470;48.738;9.616;2022-08-03T06:56:03;3.85;;;3.42;;
6862;SDS011;3470;48.738;9.616;2022-08-03T06:58:29;3.85;;;2.90;;
6862;SDS011;3470;48.738;9.616;2022-08-03T07:00:55;3.65;;;3.20;;
6862;SDS011;3470;48.738;9.616;2022-08-03T07:03:20;4.30;;;2.65;;
6862;SDS011;3470;48.738;9.616;2022-08-03T07:05:46;3.25;;;2.63;;
6862;SDS011;3470;48.738;9.616;2022-08-03T07:08:12;3.42;;;3.13;;
6862;SDS011;3470;48.738;9.616;2022-08-03T07:10:38;2.97;;;2.78;;
6862;SDS011;3470;48.738;9.616;2022-08-03T07:13:04;2.97;;;2.75;;
6862;SDS011;3470;48.738;9.616;2022-08-03T07:15:30;3.20;;;2.80;;
6862;SDS011;3470;48.738;9.616;2022-08-03T07:17:56;3.55;;;2.60;;
6862;SDS011;3470;48.738;9.616;2022-08-03T07:20:22;3.58;;;2.70;;
6862;SDS011;3470;48.738;9.616;2022-08-03T07:22:48;3.00;;;2.70;;
6862;SDS011;3470;48.738;9.616;2022-08-03T07:25:13;3.05;;;2.40;;
6862;SDS011;3470;48.738;9.616;2022-08-03T07:27:46;2.70;;;2.50;;
6862;SDS011;3470;48.738;9.616;2022-08-03T07:30:13;2.60;;;2.40;;
6862;SDS011;3470;48.738;9.616;2022-08-03T07:32:39;4.18;;;2.10;;
6862;SDS011;3470;48.738;9.616;2022-08-03T07:35:05;2.78;;;2.13;;
6862;SDS011;3470;48.738;9.616;2022-08-03T07:37:32;3.47;;;2.00;;
6862;SDS011;3470;48.738;9.616;2022-08-03T07:39:58;3.08;;;2.10;;
6862;SDS011;3470;48.738;9.616;2022-08-03T07:42:25;2.85;;;2.00;;
6862;SDS011;3470;48.738;9.616;2022-08-03T07:44:51;2.60;;;2.10;;
6862;SDS011;3470;48.738;9.616;2022-08-03T07:47:18;2.47;;;2.15;;
6862;SDS011;3470;48.738;9.616;2022-08-03T07:49:44;3.70;;;2.25;;
6862;SDS011;3470;48.738;9.616;2022-08-03T07:52:09;2.83;;;2.10;;
6862;SDS011;3470;48.738;9.616;2022-08-03T07:54:54;2.22;;;2.00;;
6862;SDS011;3470;48.738;9.616;2022-08-03T07:57:20;2.22;;;2.05;;
6862;SDS011;3470;48.738;9.616;2022-08-03T07:59:45;3.17;;;1.85;;
6862;SDS011;3470;48.738;9.616;2022-08-03T08:02:11;1.83;;;1.73;;
6862;SDS011;3470;48.738;9.616;2022-08-03T08:04:38;1.70;;;1.60;;
6862;SDS011;3470;48.738;9.616;2022-08-03T08:07:03;2.22;;;2.03;;
6862;SDS011;3470;48.738;9.616;2022-08-03T08:09:29;3.42;;;1.92;;
6862;SDS011;3470;48.738;9.616;2022-08-03T08:11:55;3.50;;;1.70;;
6862;SDS011;3470;48.738;9.616;2022-08-03T08:14:20;2.20;;;1.88;;
6862;SDS011;3470;48.738;9.616;2022-08-03T08:16:46;1.90;;;1.80;;
6862;SDS011;3470;48.738;9.616;2022-08-03T08:19:13;3.30;;;1.75;;
6862;SDS011;3470;48.738;9.616;2022-08-03T08:21:40;2.50;;;2.00;;
6862;SDS011;3470;48.738;9.616;2022-08-03T08:24:06;2.00;;;1.80;;
6862;SDS011;3470;48.738;9.616;2022-08-03T08:26:32;2.70;;;1.73;;
6862;SDS011;3470;48.738;9.616;2022-08-03T08:28:58;1.92;;;1.63;;
6862;SDS011;3470;48.738;9.616;2022-08-03T08:31:23;1.67;;;1.58;;
6862;SDS011;3470;48.738;9.616;2022-08-03T08:33:49;3.40;;;1.60;;
6862;SDS011;3470;48.738;9.616;2022-08-03T08:36:14;2.22;;;1.67;;
6862;SDS011;3470;48.738;9.616;2022-08-03T08:38:41;3.03;;;1.80;;
6862;SDS011;3470;48.738;9.616;2022-08-03T08:41:08;2.50;;;1.60;;
6862;SDS011;3470;48.738;9.616;2022-08-03T08:43:35;1.88;;;1.65;;
6862;SDS011;3470;48.738;9.616;2022-08-03T08:46:00;2.08;;;1.50;;
6862;SDS011;3470;48.738;9.616;2022-08-03T08:48:27;3.67;;;1.70;;
6862;SDS011;3470;48.738;9.616;2022-08-03T08:50:55;2.05;;;1.55;;
6862;SDS011;3470;48.738;9.616;2022-08-03T08:53:22;1.70;;;1.60;;
6862;SDS011;3470;48.738;9.616;2022-08-03T08:55:54;1.45;;;1.35;;
6862;SDS011;3470;48.738;9.616;2022-08-03T08:58:30;1.38;;;1.27;;
6862;SDS011;3470;48.738;9.616;2022-08-03T09:01:02;1.40;;;1.30;;
6862;SDS011;3470;48.738;9.616;2022-08-03T09:03:28;1.42;;;1.33;;
6862;SDS011;3470;48.738;9.616;2022-08-03T09:05:54;1.30;;;1.20;;
6862;SDS011;3470;48.738;9.616;2022-08-03T09:08:20;2.92;;;1.60;;
6862;SDS011;3470;48.738;9.616;2022-08-03T09:10:47;2.05;;;1.40;;
6862;SDS011;3470;48.738;9.616;2022-08-03T09:13:12;1.70;;;1.33;;
6862;SDS011;3470;48.738;9.616;2022-08-03T09:15:38;1.52;;;1.33;;
6862;SDS011;3470;48.738;9.616;2022-08-03T09:18:06;1.38;;;1.20;;
6862;SDS011;3470;48.738;9.616;2022-08-03T09:20:33;1.33;;;1.23;;
6862;SDS011;3470;48.738;9.616;2022-08-03T09:23:02;2.10;;;1.40;;
6862;SDS011;3470;48.738;9.616;2022-08-03T09:25:33;2.72;;;1.50;;
6862;SDS011;3470;48.738;9.616;2022-08-03T09:28:06;1.30;;;1.20;;
6862;SDS011;3470;48.738;9.616;2022-08-03T09:30:34;1.98;;;1.42;;
6862;SDS011;3470;48.738;9.616;2022-08-03T09:33:02;1.60;;;1.30;;
6862;SDS011;3470;48.738;9.616;2022-08-03T09:35:32;1.50;;;1.40;;
6862;SDS011;3470;48.738;9.616;2022-08-03T09:40:41;2.22;;;1.50;;
6862;SDS011;3470;48.738;9.616;2022-08-03T09:43:08;1.60;;;1.50;;
6862;SDS011;3470;48.738;9.616;2022-08-03T09:45:34;2.28;;;1.60;;
6862;SDS011;3470;48.738;9.616;2022-08-03T09:48:19;1.80;;;1.70;;
6862;SDS011;3470;48.738;9.616;2022-08-03T09:50:52;1.58;;;1.48;;
6862;SDS011;3470;48.738;9.616;2022-08-03T09:53:19;2.80;;;1.65;;
6862;SDS011;3470;48.738;9.616;2022-08-03T09:55:49;1.65;;;1.55;;
6862;SDS011;3470;48.738;9.616;2022-08-03T09:58:19;1.70;;;1.60;;
6862;SDS011;3470;48.738;9.616;2022-08-03T10:00:59;1.58;;;1.48;;
6862;SDS011;3470;48.738;9.616;2022-08-03T10:03:32;1.55;;;1.45;;
6862;SDS011;3470;48.738;9.616;2022-08-03T10:06:13;1.98;;;1.50;;
6862;SDS011;3470;48.738;9.616;2022-08-03T10:08:46;1.88;;;1.52;;
6862;SDS011;3470;48.738;9.616;2022-08-03T10:11:30;1.98;;;1.75;;
6862;SDS011;3470;48.738;9.616;2022-08-03T10:13:56;2.08;;;1.88;;
6862;SDS011;3470;48.738;9.616;2022-08-03T10:16:22;1.73;;;1.63;;
6862;SDS011;3470;48.738;9.616;2022-08-03T10:18:48;1.77;;;1.67;;
6862;SDS011;3470;48.738;9.616;2022-08-03T10:21:15;1.60;;;1.50;;
6862;SDS011;3470;48.738;9.616;2022-08-03T10:23:43;2.67;;;2.10;;
6862;SDS011;3470;48.738;9.616;2022-08-03T10:26:10;2.85;;;1.75;;
6862;SDS011;3470;48.738;9.616;2022-08-03T10:28:41;1.70;;;1.60;;
6862;SDS011;3470;48.738;9.616;2022-08-03T10:31:12;2.03;;;1.92;;
6862;SDS011;3470;48.738;9.616;2022-08-03T10:33:41;1.90;;;1.80;;
6862;SDS011;3470;48.738;9.616;2022-08-03T10:36:10;1.88;;;1.70;;
6862;SDS011;3470;48.738;9.616;2022-08-03T10:38:47;1.90;;;1.80;;
6862;SDS011;3470;48.738;9.616;2022-08-03T10:41:17;1.80;;;1.70;;
6862;SDS011;3470;48.738;9.616;2022-08-03T10:43:52;2.00;;;1.90;;
6862;SDS011;3470;48.738;9.616;2022-08-03T10:46:28;1.77;;;1.67;;
6862;SDS011;3470;48.738;9.616;2022-08-03T10:48:54;3.45;;;1.77;;
6862;SDS011;3470;48.738;9.616;2022-08-03T10:51:21;1.90;;;1.80;;
6862;SDS011;3470;48.738;9.616;2022-08-03T10:53:47;2.10;;;2.00;;
6862;SDS011;3470;48.738;9.616;2022-08-03T10:56:46;1.98;;;1.73;;
6862;SDS011;3470;48.738;9.616;2022-08-03T11:02:09;2.28;;;1.73;;
6862;SDS011;3470;48.738;9.616;2022-08-03T11:04:35;1.85;;;1.75;;
6862;SDS011;3470;48.738;9.616;2022-08-03T11:09:55;1.75;;;1.65;;
6862;SDS011;3470;48.738;9.616;2022-08-03T11:12:22;1.65;;;1.55;;
6862;SDS011;3470;48.738;9.616;2022-08-03T11:14:57;3.00;;;1.75;;
6862;SDS011;3470;48.738;9.616;2022-08-03T11:17:24;1.75;;;1.65;;
6862;SDS011;3470;48.738;9.616;2022-08-03T11:19:50;2.38;;;1.85;;
6862;SDS011;3470;48.738;9.616;2022-08-03T11:22:17;1.90;;;1.80;;
6862;SDS011;3470;48.738;9.616;2022-08-03T11:27:21;1.80;;;1.70;;
6862;SDS011;3470;48.738;9.616;2022-08-03T11:32:50;2.03;;;1.92;;
6862;SDS011;3470;48.738;9.616;2022-08-03T11:35:30;1.80;;;1.70;;
6862;SDS011;3470;48.738;9.616;2022-08-03T11:40:32;3.38;;;1.60;;
6862;SDS011;3470;48.738;9.616;2022-08-03T11:43:01;1.90;;;1.80;;
6862;SDS011;3470;48.738;9.616;2022-08-03T11:45:28;1.92;;;1.83;;
6862;SDS011;3470;48.738;9.616;2022-08-03T11:47:55;2.08;;;1.83;;
6862;SDS011;3470;48.738;9.616;2022-08-03T11:50:22;2.13;;;1.98;;
6862;SDS011;3470;48.738;9.616;2022-08-03T11:52:49;1.80;;;1.70;;
6862;SDS011;3470;48.738;9.616;2022-08-03T11:55:16;1.83;;;1.73;;
6862;SDS011;3470;48.738;9.616;2022-08-03T11:57:44;2.45;;;1.80;;
6862;SDS011;3470;48.738;9.616;2022-08-03T12:02:55;2.58;;;2.08;;
6862;SDS011;3470;48.738;9.616;2022-08-03T12:05:32;1.83;;;1.73;;
6862;SDS011;3470;48.738;9.616;2022-08-03T12:07:59;1.92;;;1.80;;
6862;SDS011;3470;48.738;9.616;2022-08-03T12:10:24;2.03;;;1.75;;
6862;SDS011;3470;48.738;9.616;2022-08-03T12:12:56;2.85;;;1.80;;
6862;SDS011;3470;48.738;9.616;2022-08-03T12:15:28;2.90;;;1.85;;
6862;SDS011;3470;48.738;9.616;2022-08-03T12:17:55;1.77;;;1.67;;
6862;SDS011;3470;48.738;9.616;2022-08-03T12:20:22;3.28;;;1.90;;
6862;SDS011;3470;48.738;9.616;2022-08-03T12:22:50;2.20;;;1.90;;
6862;SDS011;3470;48.738;9.616;2022-08-03T12:25:20;1.90;;;1.80;;
6862;SDS011;3470;48.738;9.616;2022-08-03T12:27:48;2.38;;;1.80;;
6862;SDS011;3470;48.738;9.616;2022-08-03T12:30:14;1.90;;;1.80;;
6862;SDS011;3470;48.738;9.616;2022-08-03T12:32:41;2.60;;;1.70;;
6862;SDS011;3470;48.738;9.616;2022-08-03T12:35:07;1.80;;;1.70;;
6862;SDS011;3470;48.738;9.616;2022-08-03T12:37:34;1.55;;;1.45;;
6862;SDS011;3470;48.738;9.616;2022-08-03T12:40:01;3.05;;;1.73;;
6862;SDS011;3470;48.738;9.616;2022-08-03T12:42:31;1.83;;;1.73;;
6862;SDS011;3470;48.738;9.616;2022-08-03T12:44:57;3.63;;;1.80;;
6862;SDS011;3470;48.738;9.616;2022-08-03T12:47:23;1.88;;;1.77;;
6862;SDS011;3470;48.738;9.616;2022-08-03T12:49:52;1.60;;;1.50;;
6862;SDS011;3470;48.738;9.616;2022-08-03T12:52:19;1.90;;;1.80;;
6862;SDS011;3470;48.738;9.616;2022-08-03T12:54:55;1.50;;;1.40;;
6862;SDS011;3470;48.738;9.616;2022-08-03T12:57:22;1.70;;;1.60;;
6862;SDS011;3470;48.738;9.616;2022-08-03T12:59:48;2.35;;;1.63;;
6862;SDS011;3470;48.738;9.616;2022-08-03T13:02:14;2.70;;;1.70;;
6862;SDS011;3470;48.738;9.616;2022-08-03T13:04:42;1.60;;;1.50;;
6862;SDS011;3470;48.738;9.616;2022-08-03T13:07:10;1.52;;;1.42;;
6862;SDS011;3470;48.738;9.616;2022-08-03T13:14:36;2.72;;;1.75;;
6862;SDS011;3470;48.738;9.616;2022-08-03T13:17:02;2.13;;;1.63;;
6862;SDS011;3470;48.738;9.616;2022-08-03T13:19:30;1.60;;;1.50;;
6862;SDS011;3470;48.738;9.616;2022-08-03T13:21:57;1.70;;;1.60;;
6862;SDS011;3470;48.738;9.616;2022-08-03T13:24:22;2.35;;;1.33;;
6862;SDS011;3470;48.738;9.616;2022-08-03T13:26:48;1.77;;;1.67;;
6862;SDS011;3470;48.738;9.616;2022-08-03T13:29:15;2.03;;;1.50;;
6862;SDS011;3470;48.738;9.616;2022-08-03T13:31:41;2.22;;;2.03;;
6862;SDS011;3470;48.738;9.616;2022-08-03T13:34:06;1.60;;;1.48;;
6862;SDS011;3470;48.738;9.616;2022-08-03T13:36:32;1.60;;;1.50;;
6862;SDS011;3470;48.738;9.616;2022-08-03T13:38:58;1.70;;;1.60;;
6862;SDS011;3470;48.738;9.616;2022-08-03T13:41:23;1.60;;;1.50;;
6862;SDS011;3470;48.738;9.616;2022-08-03T13:43:49;1.67;;;1.30;;
6862;SDS011;3470;48.738;9.616;2022-08-03T13:46:14;1.52;;;1.42;;
6862;SDS011;3470;48.738;9.616;2022-08-03T13:48:40;1.80;;;1.70;;
6862;SDS011;3470;48.738;9.616;2022-08-03T13:51:06;1.85;;;1.65;;
6862;SDS011;3470;48.738;9.616;2022-08-03T13:53:31;2.08;;;1.80;;
6862;SDS011;3470;48.738;9.616;2022-08-03T13:55:57;1.77;;;1.55;;
6862;SDS011;3470;48.738;9.616;2022-08-03T13:58:23;1.67;;;1.50;;
6862;SDS011;3470;48.738;9.616;2022-08-03T14:00:48;1.77;;;1.58;;
6862;SDS011;3470;48.738;9.616;2022-08-03T14:03:14;1.80;;;1.70;;
6862;SDS011;3470;48.738;9.616;2022-08-03T14:05:40;1.45;;;1.30;;
6862;SDS011;3470;48.738;9.616;2022-08-03T14:08:07;2.13;;;1.85;;
6862;SDS011;3470;48.738;9.616;2022-08-03T14:10:33;1.88;;;1.70;;
6862;SDS011;3470;48.738;9.616;2022-08-03T14:13:01;1.60;;;1.50;;
6862;SDS011;3470;48.738;9.616;2022-08-03T14:15:27;2.03;;;1.58;;
6862;SDS011;3470;48.738;9.616;2022-08-03T14:17:53;3.10;;;1.70;;
6862;SDS011;3470;48.738;9.616;2022-08-03T14:20:19;1.45;;;1.35;;
6862;SDS011;3470;48.738;9.616;2022-08-03T14:22:44;1.73;;;1.63;;
6862;SDS011;3470;48.738;9.616;2022-08-03T14:25:10;1.58;;;1.48;;
6862;SDS011;3470;48.738;9.616;2022-08-03T14:27:35;1.90;;;1.67;;
6862;SDS011;3470;48.738;9.616;2022-08-03T14:30:01;2.22;;;1.60;;
6862;SDS011;3470;48.738;9.616;2022-08-03T14:32:27;1.65;;;1.55;;
6862;SDS011;3470;48.738;9.616;2022-08-03T14:34:53;1.55;;;1.45;;
6862;SDS011;3470;48.738;9.616;2022-08-03T14:37:18;1.67;;;1.58;;
6862;SDS011;3470;48.738;9.616;2022-08-03T14:39:44;1.63;;;1.52;;
6862;SDS011;3470;48.738;9.616;2022-08-03T14:42:11;1.73;;;1.42;;
6862;SDS011;3470;48.738;9.616;2022-08-03T14:44:37;1.50;;;1.40;;
6862;SDS011;3470;48.738;9.616;2022-08-03T14:47:03;1.95;;;1.73;;
6862;SDS011;3470;48.738;9.616;2022-08-03T14:49:28;1.67;;;1.55;;
6862;SDS011;3470;48.738;9.616;2022-08-03T14:51:54;1.60;;;1.50;;
6862;SDS011;3470;48.738;9.616;2022-08-03T14:54:20;1.67;;;1.58;;
6862;SDS011;3470;48.738;9.616;2022-08-03T14:56:46;1.83;;;1.40;;
6862;SDS011;3470;48.738;9.616;2022-08-03T14:59:12;1.67;;;1.58;;
6862;SDS011;3470;48.738;9.616;2022-08-03T15:01:37;1.55;;;1.45;;
6862;SDS011;3470;48.738;9.616;2022-08-03T15:04:03;1.63;;;1.52;;
6862;SDS011;3470;48.738;9.616;2022-08-03T15:06:28;1.60;;;1.50;;
6862;SDS011;3470;48.738;9.616;2022-08-03T15:08:54;3.20;;;1.52;;
6862;SDS011;3470;48.738;9.616;2022-08-03T15:11:20;1.58;;;1.48;;
6862;SDS011;3470;48.738;9.616;2022-08-03T15:13:45;1.90;;;1.67;;
6862;SDS011;3470;48.738;9.616;2022-08-03T15:16:11;2.85;;;1.70;;
6862;SDS011;3470;48.738;9.616;2022-08-03T15:18:36;2.28;;;1.67;;
6862;SDS011;3470;48.738;9.616;2022-08-03T15:21:05;1.60;;;1.50;;
6862;SDS011;3470;48.738;9.616;2022-08-03T15:23:31;1.63;;;1.52;;
6862;SDS011;3470;48.738;9.616;2022-08-03T15:25:56;1.98;;;1.60;;
6862;SDS011;3470;48.738;9.616;2022-08-03T15:28:22;3.60;;;1.52;;
6862;SDS011;3470;48.738;9.616;2022-08-03T15:30:47;1.52;;;1.42;;
6862;SDS011;3470;48.738;9.616;2022-08-03T15:33:16;1.60;;;1.50;;
6862;SDS011;3470;48.738;9.616;2022-08-03T15:35:42;1.92;;;1.67;;
6862;SDS011;3470;48.738;9.616;2022-08-03T15:38:08;1.77;;;1.50;;
6862;SDS011;3470;48.738;9.616;2022-08-03T15:40:33;1.60;;;1.50;;
6862;SDS011;3470;48.738;9.616;2022-08-03T15:42:59;1.63;;;1.52;;
6862;SDS011;3470;48.738;9.616;2022-08-03T15:45:25;1.98;;;1.52;;
6862;SDS011;3470;48.738;9.616;2022-08-03T15:47:52;1.70;;;1.60;;
6862;SDS011;3470;48.738;9.616;2022-08-03T15:50:17;2.00;;;1.33;;
6862;SDS011;3470;48.738;9.616;2022-08-03T15:52:43;1.60;;;1.50;;
6862;SDS011;3470;48.738;9.616;2022-08-03T15:55:09;1.95;;;1.40;;
6862;SDS011;3470;48.738;9.616;2022-08-03T15:57:35;1.42;;;1.33;;
6862;SDS011;3470;48.738;9.616;2022-08-03T16:00:03;2.45;;;1.40;;
6862;SDS011;3470;48.738;9.616;2022-08-03T16:02:29;1.70;;;1.60;;